createdAt,value
2018-04-24T00:00:10.608Z,76.14
2018-04-24T00:01:10.622Z,76.71
2018-04-24T00:02:10.644Z,76.32
2018-04-24T00:03:10.665Z,76.61
2018-04-24T00:04:10.686Z,76.32
2018-04-24T00:05:10.702Z,75.94
2018-04-24T00:06:10.726Z,76.32
2018-04-24T00:07:10.739Z,76.71
2018-04-24T00:08:10.813Z,77.38
2018-04-24T00:09:10.781Z,76.32
2018-04-24T00:10:10.800Z,77.19
2018-04-24T00:11:10.824Z,76.42
2018-04-24T00:12:10.847Z,76.23
2018-04-24T00:13:10.858Z,76.14
2018-04-24T00:14:10.891Z,76.04
2018-04-24T00:15:10.902Z,76.42
2018-04-24T00:16:10.925Z,76.42
2018-04-24T00:17:10.945Z,76.61
2018-04-24T00:18:10.999Z,76.14
2018-04-24T00:19:10.985Z,76.42
2018-04-24T00:20:11.001Z,76.90
2018-04-24T00:21:11.026Z,75.46
2018-04-24T00:22:11.044Z,76.14
2018-04-24T00:23:11.065Z,75.37
2018-04-24T00:24:11.116Z,75.56
2018-04-24T00:25:11.102Z,75.37
2018-04-24T00:26:11.250Z,76.23
2018-04-24T00:27:11.140Z,75.37
2018-04-24T00:28:11.163Z,75.75
2018-04-24T00:29:11.180Z,75.46
2018-04-24T00:30:11.249Z,75.27
2018-04-24T00:31:11.222Z,75.46
2018-04-24T00:32:11.246Z,75.46
2018-04-24T00:33:11.260Z,74.98
2018-04-24T00:34:11.282Z,75.75
2018-04-24T00:35:11.304Z,75.37
2018-04-24T00:36:11.321Z,75.17
2018-04-24T00:37:11.338Z,75.37
2018-04-24T00:38:11.418Z,75.46
2018-04-24T00:39:11.384Z,75.56
2018-04-24T00:40:11.404Z,76.23
2018-04-24T00:41:11.421Z,75.94
2018-04-24T00:42:11.442Z,76.14
2018-04-24T00:43:11.458Z,75.94
2018-04-24T00:44:11.479Z,76.48
2018-04-24T00:45:11.497Z,76.57
2018-04-24T00:46:11.526Z,76.77
2018-04-24T00:47:11.541Z,76.96
2018-04-24T00:48:11.568Z,76.57
2018-04-24T00:49:11.577Z,77.06
2018-04-24T00:50:11.603Z,76.23
2018-04-24T00:51:11.622Z,74.98
2018-04-24T00:52:11.644Z,75.65
2018-04-24T00:53:11.661Z,75.37
2018-04-24T00:54:11.685Z,75.46
2018-04-24T00:55:11.702Z,75.46
2018-04-24T00:56:11.722Z,75.07
2018-04-24T00:57:11.738Z,74.40
2018-04-24T00:58:11.755Z,74.98
2018-04-24T00:59:11.781Z,75.27
2018-04-24T01:00:11.880Z,75.17
2018-04-24T01:01:11.869Z,75.17
2018-04-24T01:02:11.842Z,75.46
2018-04-24T01:03:11.859Z,74.98
2018-04-24T01:04:11.878Z,74.40
2018-04-24T01:05:11.910Z,74.79
2018-04-24T01:06:11.918Z,75.46
2018-04-24T01:07:11.985Z,74.69
2018-04-24T01:08:11.963Z,74.98
2018-04-24T01:09:11.979Z,74.88
2018-04-24T01:10:11.999Z,75.07
2018-04-24T01:11:12.023Z,74.88
2018-04-24T01:12:12.044Z,74.60
2018-04-24T01:13:12.064Z,74.30
2018-04-24T01:14:12.078Z,74.88
2018-04-24T01:15:12.098Z,74.69
2018-04-24T01:16:12.119Z,74.11
2018-04-24T01:17:12.144Z,74.40
2018-04-24T01:18:12.159Z,74.69
2018-04-24T01:19:12.177Z,74.79
2018-04-24T01:20:12.196Z,74.88
2018-04-24T01:21:12.219Z,74.69
2018-04-24T01:22:12.308Z,75.27
2018-04-24T01:23:12.263Z,74.69
2018-04-24T01:24:12.277Z,74.98
2018-04-24T01:25:12.298Z,75.27
2018-04-24T01:26:12.322Z,75.17
2018-04-24T01:27:12.335Z,75.13
2018-04-24T01:28:12.370Z,75.62
2018-04-24T01:29:12.379Z,75.42
2018-04-24T01:30:12.401Z,75.32
2018-04-24T01:31:12.415Z,75.71
2018-04-24T01:32:12.442Z,75.42
2018-04-24T01:33:12.456Z,75.71
2018-04-24T01:34:12.550Z,75.32
2018-04-24T01:35:12.501Z,76.86
2018-04-24T01:36:12.517Z,75.90
2018-04-24T01:37:12.543Z,75.32
2018-04-24T01:38:12.554Z,76.09
2018-04-24T01:39:12.574Z,76.09
2018-04-24T01:40:12.601Z,75.42
2018-04-24T01:41:12.614Z,76.29
2018-04-24T01:42:12.641Z,76.00
2018-04-24T01:43:12.657Z,76.86
2018-04-24T01:44:12.689Z,76.19
2018-04-24T01:45:12.693Z,76.48
2018-04-24T01:46:12.719Z,76.19
2018-04-24T01:47:12.737Z,76.29
2018-04-24T01:48:12.753Z,76.09
2018-04-24T01:49:12.830Z,76.29
2018-04-24T01:50:12.792Z,76.39
2018-04-24T01:51:12.814Z,76.48
2018-04-24T01:52:12.831Z,76.39
2018-04-24T01:54:12.895Z,77.06
2018-04-24T01:55:12.890Z,76.77
2018-04-24T01:56:12.912Z,76.67
2018-04-24T01:57:12.934Z,75.62
2018-04-24T01:58:12.948Z,76.09
2018-04-24T01:59:12.968Z,75.62
2018-04-24T02:00:12.988Z,75.90
2018-04-24T02:01:13.011Z,75.81
2018-04-24T02:02:13.027Z,75.71
2018-04-24T02:03:13.124Z,75.23
2018-04-24T02:04:13.069Z,75.71
2018-04-24T02:05:13.091Z,75.32
2018-04-24T02:06:13.110Z,76.09
2018-04-24T02:07:13.131Z,76.48
2018-04-24T02:08:13.153Z,76.29
2018-04-24T02:09:13.189Z,76.19
2018-04-24T02:10:13.189Z,76.39
2018-04-24T02:11:13.205Z,76.39
2018-04-24T02:12:13.226Z,76.57
2018-04-24T02:13:13.255Z,76.77
2018-04-24T02:14:13.265Z,76.29
2018-04-24T02:15:13.285Z,76.39
2018-04-24T02:16:13.308Z,76.39
2018-04-24T02:17:13.323Z,76.48
2018-04-24T02:18:13.348Z,76.96
2018-04-24T02:19:13.362Z,76.57
2018-04-24T02:20:13.382Z,76.39
2018-04-24T02:21:13.404Z,76.57
2018-04-24T02:22:13.428Z,77.15
2018-04-24T02:23:13.448Z,77.15
2018-04-24T02:24:13.461Z,77.25
2018-04-24T02:25:13.486Z,77.34
2018-04-24T02:26:13.508Z,77.06
2018-04-24T02:27:13.522Z,77.83
2018-04-24T02:28:13.543Z,77.25
2018-04-24T02:29:13.563Z,77.31
2018-04-24T02:30:13.585Z,77.83
2018-04-24T02:31:13.602Z,77.34
2018-04-24T02:32:13.626Z,77.34
2018-04-24T02:33:13.639Z,77.25
2018-04-24T02:34:13.663Z,78.02
2018-04-24T02:35:13.679Z,77.92
2018-04-24T02:36:13.703Z,77.34
2018-04-24T02:37:13.719Z,77.34
2018-04-24T02:38:13.797Z,77.53
2018-04-24T02:39:13.765Z,77.53
2018-04-24T02:40:13.835Z,77.98
2018-04-24T02:41:13.803Z,78.08
2018-04-24T02:42:13.819Z,78.17
2018-04-24T02:43:13.893Z,77.88
2018-04-24T02:44:13.858Z,78.45
2018-04-24T02:45:13.875Z,77.78
2018-04-24T02:46:13.906Z,77.53
2018-04-24T02:47:13.913Z,77.73
2018-04-24T02:48:13.935Z,77.53
2018-04-24T02:49:14.010Z,77.73
2018-04-24T02:50:13.974Z,77.83
2018-04-24T02:51:13.998Z,78.11
2018-04-24T02:52:14.025Z,77.92
2018-04-24T02:53:14.035Z,77.73
2018-04-24T02:54:14.052Z,77.92
2018-04-24T02:55:14.072Z,78.11
2018-04-24T02:56:14.100Z,77.63
2018-04-24T02:57:14.111Z,77.25
2018-04-24T02:58:14.133Z,77.53
2018-04-24T02:59:14.168Z,78.11
2018-04-24T03:00:14.168Z,77.83
2018-04-24T03:01:14.228Z,77.53
2018-04-24T03:02:14.207Z,77.63
2018-04-24T03:03:14.234Z,77.15
2018-04-24T03:04:14.247Z,77.92
2018-04-24T03:05:14.275Z,77.83
2018-04-24T03:06:14.294Z,77.34
2018-04-24T03:07:14.315Z,77.92
2018-04-24T03:08:14.331Z,77.53
2018-04-24T03:09:14.358Z,77.63
2018-04-24T03:10:14.376Z,77.44
2018-04-24T03:11:14.393Z,77.25
2018-04-24T03:12:14.415Z,77.06
2018-04-24T03:13:14.434Z,77.25
2018-04-24T03:14:14.447Z,77.92
2018-04-24T03:15:14.469Z,77.34
2018-04-24T03:16:14.484Z,77.83
2018-04-24T03:17:14.507Z,77.92
2018-04-24T03:18:14.583Z,77.92
2018-04-24T03:19:14.544Z,77.83
2018-04-24T03:20:14.567Z,77.53
2018-04-24T03:21:14.595Z,77.92
2018-04-24T03:22:14.607Z,77.34
2018-04-24T03:23:14.629Z,77.53
2018-04-24T03:24:14.673Z,77.92
2018-04-24T03:25:14.666Z,77.73
2018-04-24T03:26:14.683Z,77.73
2018-04-24T03:27:14.701Z,77.92
2018-04-24T03:28:14.729Z,77.73
2018-04-24T03:29:14.746Z,78.02
2018-04-24T03:30:14.765Z,77.73
2018-04-24T03:31:14.842Z,77.25
2018-04-24T03:32:14.803Z,77.83
2018-04-24T03:33:14.827Z,77.83
2018-04-24T03:34:14.842Z,77.83
2018-04-24T03:35:14.890Z,77.53
2018-04-24T03:36:14.898Z,77.63
2018-04-24T03:37:14.903Z,77.73
2018-04-24T03:38:14.923Z,77.53
2018-04-24T03:39:14.939Z,77.44
2018-04-24T03:40:14.970Z,77.83
2018-04-24T03:41:15.094Z,77.73
2018-04-24T03:42:15.069Z,77.38
2018-04-24T03:43:15.027Z,77.83
2018-04-24T03:44:15.043Z,77.63
2018-04-24T03:45:15.063Z,77.83
2018-04-24T03:46:15.086Z,77.73
2018-04-24T03:47:15.149Z,77.83
2018-04-24T03:48:15.174Z,77.25
2018-04-24T03:49:15.139Z,77.25
2018-04-24T03:50:15.160Z,77.73
2018-04-24T03:51:15.180Z,77.34
2018-04-24T03:52:15.204Z,77.83
2018-04-24T03:53:15.220Z,77.15
2018-04-24T03:54:15.290Z,78.02
2018-04-24T03:55:15.256Z,77.83
2018-04-24T03:56:15.275Z,77.83
2018-04-24T03:57:15.307Z,77.63
2018-04-24T03:58:15.318Z,78.40
2018-04-24T03:59:15.342Z,78.11
2018-04-24T04:00:15.362Z,78.59
2018-04-24T04:01:15.380Z,78.69
2018-04-24T04:02:15.393Z,78.40
2018-04-24T04:03:15.422Z,78.50
2018-04-24T04:04:15.438Z,78.21
2018-04-24T04:05:15.456Z,78.50
2018-04-24T04:06:15.527Z,78.69
2018-04-24T04:07:15.496Z,78.50
2018-04-24T04:08:15.515Z,78.50
2018-04-24T04:09:15.533Z,79.17
2018-04-24T04:10:15.571Z,79.03
2018-04-24T04:11:15.579Z,78.45
2018-04-24T04:12:15.645Z,78.88
2018-04-24T04:13:15.618Z,79.52
2018-04-24T04:14:15.634Z,79.32
2018-04-24T04:15:15.654Z,79.32
2018-04-24T04:16:15.755Z,79.61
2018-04-24T04:17:15.690Z,79.71
2018-04-24T04:18:15.765Z,79.99
2018-04-24T04:19:15.739Z,79.80
2018-04-24T04:20:15.751Z,80.19
2018-04-24T04:21:15.767Z,80.38
2018-04-24T04:22:15.856Z,80.19
2018-04-24T04:23:15.806Z,80.66
2018-04-24T04:24:15.833Z,80.38
2018-04-24T04:25:15.847Z,80.96
2018-04-24T04:26:15.873Z,81.15
2018-04-24T04:27:15.886Z,80.47
2018-04-24T04:28:15.907Z,80.76
2018-04-24T04:29:15.928Z,81.15
2018-04-24T04:30:15.951Z,81.05
2018-04-24T04:31:15.967Z,80.86
2018-04-24T04:32:15.984Z,80.76
2018-04-24T04:33:16.008Z,81.24
2018-04-24T04:34:16.021Z,81.53
2018-04-24T04:35:16.044Z,81.15
2018-04-24T04:36:16.113Z,80.86
2018-04-24T04:37:16.086Z,81.63
2018-04-24T04:38:16.105Z,81.82
2018-04-24T04:39:16.122Z,81.92
2018-04-24T04:40:16.140Z,82.30
2018-04-24T04:41:16.166Z,81.72
2018-04-24T04:42:16.179Z,82.10
2018-04-24T04:43:16.199Z,82.30
2018-04-24T04:44:16.222Z,82.30
2018-04-24T04:45:16.237Z,82.20
2018-04-24T04:46:16.258Z,82.20
2018-04-24T04:47:16.273Z,81.63
2018-04-24T04:48:16.350Z,81.72
2018-04-24T04:49:16.313Z,81.72
2018-04-24T04:50:16.337Z,82.10
2018-04-24T04:51:16.352Z,82.01
2018-04-24T04:52:16.375Z,82.20
2018-04-24T04:53:16.395Z,82.30
2018-04-24T04:54:16.411Z,82.10
2018-04-24T04:55:16.436Z,82.20
2018-04-24T04:56:16.453Z,82.20
2018-04-24T04:57:16.507Z,82.97
2018-04-24T04:58:16.499Z,82.40
2018-04-24T04:59:16.515Z,82.49
2018-04-24T05:00:16.581Z,82.59
2018-04-24T05:01:16.557Z,82.68
2018-04-24T05:02:16.570Z,83.07
2018-04-24T05:03:16.590Z,82.54
2018-04-24T05:04:16.606Z,82.68
2018-04-24T05:05:16.677Z,83.31
2018-04-24T05:06:16.698Z,83.51
2018-04-24T05:07:16.666Z,83.41
2018-04-24T05:08:16.685Z,83.03
2018-04-24T05:09:16.703Z,83.60
2018-04-24T05:10:16.725Z,83.03
2018-04-24T05:11:16.743Z,83.51
2018-04-24T05:12:16.759Z,83.80
2018-04-24T05:13:16.782Z,83.89
2018-04-24T05:14:16.799Z,83.60
2018-04-24T05:15:16.816Z,83.70
2018-04-24T05:16:16.840Z,83.60
2018-04-24T05:17:16.861Z,83.41
2018-04-24T05:18:16.882Z,83.70
2018-04-24T05:19:16.897Z,83.98
2018-04-24T05:20:16.954Z,83.80
2018-04-24T05:21:16.935Z,83.60
2018-04-24T05:22:16.961Z,83.80
2018-04-24T05:23:16.977Z,83.41
2018-04-24T05:24:16.998Z,83.22
2018-04-24T05:25:17.013Z,83.26
2018-04-24T05:26:17.070Z,83.60
2018-04-24T05:27:17.059Z,83.60
2018-04-24T05:28:17.071Z,83.31
2018-04-24T05:29:17.092Z,83.03
2018-04-24T05:30:17.115Z,83.70
2018-04-24T05:31:17.132Z,83.22
2018-04-24T05:32:17.149Z,83.22
2018-04-24T05:33:17.165Z,83.51
2018-04-24T05:34:17.183Z,83.41
2018-04-24T05:35:17.206Z,82.78
2018-04-24T05:36:17.279Z,83.26
2018-04-24T05:37:17.255Z,83.26
2018-04-24T05:38:17.261Z,83.45
2018-04-24T05:39:17.281Z,82.78
2018-04-24T05:40:17.308Z,83.36
2018-04-24T05:41:17.323Z,83.03
2018-04-24T05:42:17.342Z,83.26
2018-04-24T05:43:17.357Z,83.54
2018-04-24T05:44:17.381Z,82.97
2018-04-24T05:45:17.407Z,83.36
2018-04-24T05:46:17.424Z,83.36
2018-04-24T05:47:17.438Z,83.16
2018-04-24T05:48:17.508Z,82.78
2018-04-24T05:49:17.507Z,83.16
2018-04-24T05:50:17.493Z,82.78
2018-04-24T05:51:17.521Z,83.07
2018-04-24T05:52:17.539Z,83.45
2018-04-24T05:53:17.557Z,82.78
2018-04-24T05:54:17.625Z,82.87
2018-04-24T05:55:17.608Z,83.45
2018-04-24T05:56:17.611Z,83.07
2018-04-24T05:57:17.632Z,83.84
2018-04-24T05:58:17.656Z,83.31
2018-04-24T05:59:17.671Z,82.87
2018-04-24T06:00:17.747Z,83.16
2018-04-24T06:01:17.757Z,83.51
2018-04-24T06:02:17.736Z,83.60
2018-04-24T06:03:17.760Z,83.60
2018-04-24T06:04:17.769Z,83.41
2018-04-24T06:05:17.789Z,83.80
2018-04-24T06:06:17.860Z,83.36
2018-04-24T06:07:17.916Z,83.26
2018-04-24T06:08:17.855Z,83.36
2018-04-24T06:09:17.866Z,83.26
2018-04-24T06:10:17.885Z,83.26
2018-04-24T06:11:17.908Z,83.16
2018-04-24T06:12:17.929Z,83.36
2018-04-24T06:13:18.022Z,83.07
2018-04-24T06:14:17.965Z,83.36
2018-04-24T06:15:17.990Z,83.89
2018-04-24T06:16:18.026Z,83.98
2018-04-24T06:17:18.028Z,83.60
2018-04-24T06:18:18.099Z,83.12
2018-04-24T06:19:18.075Z,83.12
2018-04-24T06:20:18.082Z,83.31
2018-04-24T06:21:18.103Z,83.22
2018-04-24T06:22:18.128Z,83.51
2018-04-24T06:23:18.139Z,83.70
2018-04-24T06:24:18.218Z,84.37
2018-04-24T06:25:18.239Z,83.80
2018-04-24T06:26:18.200Z,83.51
2018-04-24T06:27:18.219Z,83.60
2018-04-24T06:28:18.241Z,83.70
2018-04-24T06:29:18.262Z,83.60
2018-04-24T06:30:18.341Z,83.12
2018-04-24T06:31:18.302Z,83.31
2018-04-24T06:32:18.319Z,83.31
2018-04-24T06:33:18.348Z,83.60
2018-04-24T06:34:18.358Z,83.60
2018-04-24T06:35:18.387Z,83.31
2018-04-24T06:36:18.451Z,83.54
2018-04-24T06:37:18.417Z,83.36
2018-04-24T06:38:18.432Z,83.26
2018-04-24T06:39:18.455Z,82.87
2018-04-24T06:40:18.474Z,82.97
2018-04-24T06:41:18.500Z,82.87
2018-04-24T06:42:18.568Z,83.26
2018-04-24T06:43:18.532Z,83.26
2018-04-24T06:44:18.548Z,83.07
2018-04-24T06:45:18.574Z,83.07
2018-04-24T06:46:18.593Z,82.97
2018-04-24T06:47:18.614Z,82.97
2018-04-24T06:48:18.721Z,82.78
2018-04-24T06:49:18.649Z,82.59
2018-04-24T06:50:18.667Z,82.59
2018-04-24T06:51:18.687Z,82.68
2018-04-24T06:52:18.705Z,82.20
2018-04-24T06:53:18.729Z,82.59
2018-04-24T06:54:18.818Z,82.68
2018-04-24T06:55:18.765Z,82.40
2018-04-24T06:56:18.786Z,81.63
2018-04-24T06:57:18.809Z,81.72
2018-04-24T06:58:18.822Z,81.19
2018-04-24T06:59:18.850Z,81.09
2018-04-24T07:00:18.917Z,80.42
2018-04-24T07:01:18.884Z,80.42
2018-04-24T07:02:18.902Z,80.32
2018-04-24T07:03:18.928Z,80.42
2018-04-24T07:04:18.949Z,80.04
2018-04-24T07:05:18.968Z,80.22
2018-04-24T07:06:19.052Z,79.84
2018-04-24T07:07:19.000Z,79.36
2018-04-24T07:08:19.027Z,78.53
2018-04-24T07:09:19.048Z,78.92
2018-04-24T07:10:19.065Z,78.92
2018-04-24T07:11:19.087Z,78.69
2018-04-24T07:12:19.107Z,78.69
2018-04-24T07:13:19.125Z,78.92
2018-04-24T07:14:19.139Z,78.15
2018-04-24T07:15:19.254Z,78.34
2018-04-24T07:16:19.199Z,79.21
2018-04-24T07:17:19.240Z,78.44
2018-04-24T07:18:19.277Z,78.53
2018-04-24T07:19:19.241Z,78.34
2018-04-24T07:20:19.259Z,78.44
2018-04-24T07:21:19.278Z,78.53
2018-04-24T07:22:19.380Z,78.53
2018-04-24T07:23:19.317Z,78.25
2018-04-24T07:24:19.341Z,78.44
2018-04-24T07:25:19.358Z,78.15
2018-04-24T07:26:19.386Z,78.06
2018-04-24T07:27:19.417Z,77.76
2018-04-24T07:28:19.446Z,77.48
2018-04-24T07:29:19.439Z,78.00
2018-04-24T07:30:19.457Z,77.90
2018-04-24T07:31:19.477Z,78.00
2018-04-24T07:32:19.496Z,77.42
2018-04-24T07:33:19.523Z,76.98
2018-04-24T07:34:19.539Z,76.50
2018-04-24T07:35:19.557Z,75.54
2018-04-24T07:36:19.636Z,74.71
2018-04-24T07:37:19.598Z,74.71
2018-04-24T07:38:19.620Z,73.49
2018-04-24T07:39:19.642Z,72.78
2018-04-24T07:40:19.669Z,72.05
2018-04-24T07:41:19.681Z,72.37
2018-04-24T07:42:19.699Z,70.92
2018-04-24T07:43:19.716Z,70.35
2018-04-24T07:44:19.763Z,69.80
2018-04-24T07:45:19.761Z,69.51
2018-04-24T07:46:19.780Z,68.74
2018-04-24T07:47:19.805Z,69.16
2018-04-24T07:48:19.878Z,68.55
2018-04-24T07:49:19.842Z,68.55
2018-04-24T07:50:19.935Z,68.01
2018-04-24T07:51:19.881Z,67.62
2018-04-24T07:52:19.905Z,67.52
2018-04-24T07:53:19.938Z,67.91
2018-04-24T07:54:19.949Z,67.85
2018-04-24T07:55:19.968Z,68.07
2018-04-24T07:56:19.985Z,68.29
2018-04-24T07:57:20.012Z,68.39
2018-04-24T07:58:20.038Z,67.55
2018-04-24T07:59:20.137Z,67.17
2018-04-24T08:00:20.074Z,67.04
2018-04-24T08:01:20.112Z,67.07
2018-04-24T08:02:20.116Z,66.14
2018-04-24T08:03:20.139Z,65.17
2018-04-24T08:04:20.155Z,64.05
2018-04-24T08:05:20.185Z,64.14
2018-04-24T08:06:20.251Z,61.92
2018-04-24T08:07:20.228Z,62.40
2018-04-24T08:08:20.250Z,62.02
2018-04-24T08:09:20.266Z,62.40
2018-04-24T08:10:20.292Z,62.60
2018-04-24T08:11:20.308Z,62.89
2018-04-24T08:12:20.338Z,62.40
2018-04-24T08:13:20.358Z,62.63
2018-04-24T08:14:20.376Z,62.53
2018-04-24T08:15:20.500Z,61.08
2018-04-24T08:16:20.420Z,60.11
2018-04-24T08:17:20.451Z,60.92
2018-04-24T08:18:20.518Z,59.69
2018-04-24T08:19:20.490Z,59.79
2018-04-24T08:20:20.511Z,58.34
2018-04-24T08:21:20.531Z,58.17
2018-04-24T08:22:20.552Z,57.56
2018-04-24T08:23:20.593Z,58.24
2018-04-24T08:24:20.596Z,59.23
2018-04-24T08:25:20.621Z,57.20
2018-04-24T08:26:20.648Z,57.18
2018-04-24T08:28:20.690Z,56.43
2018-04-24T08:29:20.715Z,56.24
2018-04-24T08:30:20.735Z,55.56
2018-04-24T08:31:20.761Z,55.56
2018-04-24T08:32:20.783Z,56.43
2018-04-24T08:33:20.809Z,55.56
2018-04-24T08:34:20.830Z,55.56
2018-04-24T08:35:20.850Z,56.16
2018-04-24T08:36:20.870Z,56.00
2018-04-24T08:37:20.892Z,54.33
2018-04-24T08:38:20.926Z,54.16
2018-04-24T08:39:20.946Z,54.26
2018-04-24T08:40:20.968Z,53.77
2018-04-24T08:41:20.997Z,54.96
2018-04-24T08:42:21.057Z,53.61
2018-04-24T08:43:21.035Z,53.80
2018-04-24T08:44:21.061Z,54.06
2018-04-24T08:45:21.078Z,54.19
2018-04-24T08:46:21.108Z,52.25
2018-04-24T08:47:21.181Z,53.77
2018-04-24T08:48:21.207Z,54.45
2018-04-24T08:49:21.180Z,53.87
2018-04-24T08:50:21.206Z,54.35
2018-04-24T08:51:21.222Z,54.33
2018-04-24T08:52:21.247Z,55.58
2018-04-24T08:53:21.363Z,54.58
2018-04-24T08:54:21.290Z,53.02
2018-04-24T08:55:21.314Z,53.05
2018-04-24T08:56:21.392Z,52.40
2018-04-24T08:57:21.371Z,52.11
2018-04-24T08:58:21.393Z,50.94
2018-04-24T08:59:21.422Z,51.53
2018-04-24T09:00:21.436Z,51.04
2018-04-24T09:01:21.464Z,50.56
2018-04-24T09:02:21.481Z,51.62
2018-04-24T09:03:21.507Z,50.26
2018-04-24T09:04:21.530Z,51.01
2018-04-24T09:05:21.605Z,51.91
2018-04-24T09:06:21.582Z,51.14
2018-04-24T09:07:21.599Z,49.80
2018-04-24T09:08:21.629Z,50.38
2018-04-24T09:09:21.651Z,49.71
2018-04-24T09:10:21.670Z,50.12
2018-04-24T09:11:21.741Z,49.37
2018-04-24T09:12:21.723Z,48.39
2018-04-24T09:13:21.750Z,48.78
2018-04-24T09:14:21.768Z,48.85
2018-04-24T09:15:21.798Z,49.54
2018-04-24T09:16:21.817Z,49.05
2018-04-24T09:17:21.925Z,50.41
2018-04-24T09:18:21.876Z,49.44
2018-04-24T09:19:21.913Z,49.51
2018-04-24T09:20:21.920Z,49.82
2018-04-24T09:21:21.948Z,49.99
2018-04-24T09:22:21.969Z,49.44
2018-04-24T09:23:22.000Z,49.17
2018-04-24T09:24:22.016Z,49.82
2018-04-24T09:25:22.040Z,49.05
2018-04-24T09:26:22.066Z,49.05
2018-04-24T09:27:22.091Z,49.66
2018-04-24T09:28:22.115Z,48.51
2018-04-24T09:29:22.139Z,48.15
2018-04-24T09:30:22.163Z,48.83
2018-04-24T09:31:22.189Z,48.66
2018-04-24T09:32:22.211Z,47.59
2018-04-24T09:33:22.287Z,47.49
2018-04-24T09:34:22.258Z,47.49
2018-04-24T09:35:22.340Z,47.10
2018-04-24T09:36:22.316Z,48.46
2018-04-24T09:37:22.342Z,46.61
2018-04-24T09:38:22.363Z,48.63
2018-04-24T09:39:22.399Z,46.61
2018-04-24T09:40:22.415Z,47.27
2018-04-24T09:41:22.495Z,48.54
2018-04-24T09:42:22.517Z,49.00
2018-04-24T09:43:22.491Z,48.51
2018-04-24T09:44:22.518Z,48.63
2018-04-24T09:45:22.543Z,48.46
2018-04-24T09:46:22.568Z,46.93
2018-04-24T09:47:22.596Z,47.10
2018-04-24T09:48:22.649Z,47.56
2018-04-24T09:49:22.680Z,49.12
2018-04-24T09:50:22.667Z,47.52
2018-04-24T09:51:22.714Z,48.41
2018-04-24T09:52:22.724Z,49.19
2018-04-24T09:53:22.748Z,49.32
2018-04-24T09:54:22.773Z,48.95
2018-04-24T09:55:22.796Z,47.56
2018-04-24T09:56:22.824Z,48.25
2018-04-24T09:57:22.843Z,47.03
2018-04-24T09:58:22.875Z,47.03
2018-04-24T09:59:22.999Z,46.39
2018-04-24T10:00:22.926Z,44.44
2018-04-24T10:01:22.946Z,46.73
2018-04-24T10:02:22.971Z,45.88
2018-04-24T10:03:23.007Z,46.64
2018-04-24T10:04:23.030Z,48.05
2018-04-24T10:05:23.146Z,48.49
2018-04-24T10:06:23.079Z,47.52
2018-04-24T10:07:23.100Z,47.25
2018-04-24T10:08:23.131Z,47.34
2018-04-24T10:09:23.154Z,46.73
2018-04-24T10:10:23.188Z,46.86
2018-04-24T10:11:23.290Z,46.49
2018-04-24T10:12:23.237Z,45.42
2018-04-24T10:13:23.286Z,44.40
2018-04-24T10:14:23.288Z,46.17
2018-04-24T10:15:23.315Z,46.37
2018-04-24T10:16:23.391Z,45.20
2018-04-24T10:17:23.401Z,46.34
2018-04-24T10:18:23.394Z,44.90
2018-04-24T10:19:23.415Z,45.28
2018-04-24T10:20:23.443Z,46.56
2018-04-24T10:21:23.466Z,46.54
2018-04-24T10:22:23.494Z,46.56
2018-04-24T10:23:23.521Z,44.23
2018-04-24T10:24:23.548Z,44.69
2018-04-24T10:25:23.572Z,44.76
2018-04-24T10:26:23.600Z,45.81
2018-04-24T10:27:23.636Z,45.35
2018-04-24T10:28:23.650Z,45.37
2018-04-24T10:29:23.676Z,46.25
2018-04-24T10:30:23.698Z,44.98
2018-04-24T10:31:23.740Z,44.40
2018-04-24T10:32:23.751Z,43.91
2018-04-24T10:33:23.783Z,43.64
2018-04-24T10:34:23.804Z,45.49
2018-04-24T10:35:23.882Z,44.48
2018-04-24T10:36:23.929Z,45.76
2018-04-24T10:37:23.977Z,44.57
2018-04-24T10:38:23.912Z,45.37
2018-04-24T10:39:23.935Z,45.49
2018-04-24T10:40:23.968Z,45.15
2018-04-24T10:41:23.988Z,43.80
2018-04-24T10:42:24.013Z,41.46
2018-04-24T10:43:24.039Z,41.73
2018-04-24T10:44:24.065Z,43.19
2018-04-24T10:45:24.090Z,43.59
2018-04-24T10:46:24.116Z,43.27
2018-04-24T10:47:24.146Z,42.54
2018-04-24T10:48:24.202Z,43.66
2018-04-24T10:49:24.197Z,43.47
2018-04-24T10:50:24.226Z,42.90
2018-04-24T10:51:24.253Z,43.74
2018-04-24T10:52:24.281Z,43.35
2018-04-24T10:53:24.307Z,44.15
2018-04-24T10:54:24.418Z,43.18
2018-04-24T10:55:24.352Z,42.02
2018-04-24T10:56:24.383Z,42.22
2018-04-24T10:57:24.411Z,42.26
2018-04-24T10:58:24.433Z,42.46
2018-04-24T10:59:24.609Z,41.95
2018-04-24T11:00:24.570Z,43.02
2018-04-24T11:01:24.513Z,41.75
2018-04-24T11:02:24.536Z,43.88
2018-04-24T11:03:24.566Z,43.08
2018-04-24T11:04:24.591Z,43.19
2018-04-24T11:05:24.680Z,44.37
2018-04-24T11:06:24.648Z,44.29
2018-04-24T11:07:24.672Z,44.07
2018-04-24T11:08:24.698Z,43.90
2018-04-24T11:09:24.727Z,41.75
2018-04-24T11:10:24.758Z,42.85
2018-04-24T11:11:24.786Z,41.66
2018-04-24T11:12:24.808Z,42.41
2018-04-24T11:13:24.833Z,43.98
2018-04-24T11:14:24.857Z,44.15
2018-04-24T11:15:24.887Z,43.95
2018-04-24T11:16:24.911Z,43.51
2018-04-24T11:17:24.979Z,42.93
2018-04-24T11:18:24.966Z,42.44
2018-04-24T11:19:24.994Z,42.63
2018-04-24T11:20:25.022Z,43.80
2018-04-24T11:21:25.074Z,40.80
2018-04-24T11:22:25.075Z,40.89
2018-04-24T11:23:25.110Z,40.74
2018-04-24T11:24:25.124Z,41.28
2018-04-24T11:25:25.167Z,43.16
2018-04-24T11:26:25.180Z,39.94
2018-04-24T11:27:25.212Z,40.63
2018-04-24T11:28:25.252Z,40.23
2018-04-24T11:29:25.265Z,40.53
2018-04-24T11:30:25.312Z,41.87
2018-04-24T11:31:25.311Z,42.93
2018-04-24T11:32:25.388Z,41.97
2018-04-24T11:33:25.373Z,40.72
2018-04-24T11:34:25.483Z,42.97
2018-04-24T11:35:25.473Z,42.09
2018-04-24T11:36:25.453Z,40.68
2018-04-24T11:37:25.477Z,43.08
2018-04-24T11:38:25.509Z,45.88
2018-04-24T11:39:25.563Z,45.47
2018-04-24T11:40:25.560Z,46.56
2018-04-24T11:41:25.730Z,45.42
2018-04-24T11:42:25.613Z,43.80
2018-04-24T11:43:25.641Z,43.53
2018-04-24T11:44:25.672Z,42.69
2018-04-24T11:45:25.725Z,43.77
2018-04-24T11:46:25.722Z,42.68
2018-04-24T11:47:25.746Z,43.92
2018-04-24T11:48:25.777Z,43.82
2018-04-24T11:49:25.800Z,45.09
2018-04-24T11:50:25.829Z,44.24
2018-04-24T11:51:25.859Z,43.07
2018-04-24T11:52:25.887Z,42.30
2018-04-24T11:53:25.919Z,41.60
2018-04-24T11:54:25.940Z,43.33
2018-04-24T11:55:25.967Z,43.49
2018-04-24T11:56:26.010Z,42.93
2018-04-24T11:57:26.021Z,43.85
2018-04-24T11:58:26.050Z,43.61
2018-04-24T11:59:26.081Z,43.85
2018-04-24T12:00:26.098Z,42.48
2018-04-24T12:01:26.132Z,42.50
2018-04-24T12:02:26.156Z,42.42
2018-04-24T12:03:26.187Z,41.72
2018-04-24T12:04:26.212Z,41.80
2018-04-24T12:05:26.234Z,43.08
2018-04-24T12:06:26.268Z,42.40
2018-04-24T12:07:26.291Z,41.62
2018-04-24T12:08:26.317Z,41.23
2018-04-24T12:09:26.344Z,40.66
2018-04-24T12:10:26.370Z,39.98
2018-04-24T12:11:26.401Z,40.29
2018-04-24T12:12:26.429Z,40.37
2018-04-24T12:13:26.498Z,40.35
2018-04-24T12:14:26.478Z,40.27
2018-04-24T12:15:26.517Z,42.71
2018-04-24T12:16:26.540Z,40.76
2018-04-24T12:17:26.619Z,41.25
2018-04-24T12:18:26.590Z,41.15
2018-04-24T12:19:26.706Z,43.01
2018-04-24T12:21:26.671Z,43.63
2018-04-24T12:22:26.705Z,42.55
2018-04-24T12:23:26.789Z,43.61
2018-04-24T12:24:26.805Z,44.53
2018-04-24T12:25:26.784Z,42.11
2018-04-24T12:26:26.810Z,40.66
2018-04-24T12:27:26.837Z,41.19
2018-04-24T12:28:26.874Z,42.29
2018-04-24T12:29:26.899Z,41.91
2018-04-24T12:30:26.973Z,40.16
2018-04-24T12:31:26.946Z,40.84
2018-04-24T12:32:26.981Z,39.88
2018-04-24T12:33:27.001Z,40.56
2018-04-24T12:34:27.035Z,40.27
2018-04-24T12:35:27.063Z,40.48
2018-04-24T12:36:27.137Z,38.92
2018-04-24T12:37:27.117Z,38.92
2018-04-24T12:38:27.183Z,38.35
2018-04-24T12:39:27.177Z,39.10
2018-04-24T12:40:27.198Z,40.27
2018-04-24T12:41:27.224Z,40.19
2018-04-24T12:42:27.386Z,38.53
2018-04-24T12:43:27.281Z,37.93
2018-04-24T12:44:27.309Z,39.69
2018-04-24T12:45:27.334Z,39.02
2018-04-24T12:46:27.366Z,41.17
2018-04-24T12:47:27.444Z,40.90
2018-04-24T12:48:27.424Z,40.31
2018-04-24T12:49:27.452Z,38.47
2018-04-24T12:50:27.478Z,38.57
2018-04-24T12:51:27.508Z,38.98
2018-04-24T12:52:27.536Z,39.86
2018-04-24T12:53:27.617Z,39.51
2018-04-24T12:54:27.592Z,40.27
2018-04-24T12:55:27.616Z,39.98